Krsko, Slovenia
Current Conditions -  °F | °C
As of 10:30 AM on Sunday 23 Nov 2014 (Local Time) from LJCE Reporting Station
Moderate Fog Moderate Fog  
Wind Chill: 34°   Ceiling: 200
Heat Index: 37°   Visibility: 0.5mi
Dew Point: 37°   Wind: 5mph
Humidity: 100%   Direction: 220°SW
Pressure: 30.42"   Gusts: NA
Location:  45.96°N, 15.49°E
Report Text: LJCE 230830Z 22004KT 0800 R09/P2000N FG VV002 03/03 Q1030 RMK AMB
Loading
Personal Weather Stations






























Interactive Weather Map New forecast layout! Learn more

10-Day Weather Forecast

Advertisements
Track Severe Weather on mobile